sensor_id;sensor_type;location;lat;lon;timestamp;P1;durP1;ratioP1;P2;durP2;ratioP2
14528;SDS011;7351;51.194;4.098;2023-04-25T00:02:13;4.53;;;3.80;;
14528;SDS011;7351;51.194;4.098;2023-04-25T00:04:40;5.00;;;3.87;;
14528;SDS011;7351;51.194;4.098;2023-04-25T00:07:08;6.13;;;3.90;;
14528;SDS011;7351;51.194;4.098;2023-04-25T00:09:35;7.00;;;5.20;;
14528;SDS011;7351;51.194;4.098;2023-04-25T00:12:02;7.33;;;4.67;;
14528;SDS011;7351;51.194;4.098;2023-04-25T00:14:30;5.63;;;3.93;;
14528;SDS011;7351;51.194;4.098;2023-04-25T00:16:59;6.30;;;4.23;;
14528;SDS011;7351;51.194;4.098;2023-04-25T00:19:26;7.30;;;4.57;;
14528;SDS011;7351;51.194;4.098;2023-04-25T00:21:53;7.80;;;4.90;;
14528;SDS011;7351;51.194;4.098;2023-04-25T00:24:21;7.37;;;4.80;;
14528;SDS011;7351;51.194;4.098;2023-04-25T00:26:48;6.73;;;3.50;;
14528;SDS011;7351;51.194;4.098;2023-04-25T00:29:15;6.67;;;3.97;;
14528;SDS011;7351;51.194;4.098;2023-04-25T00:31:42;5.07;;;3.77;;
14528;SDS011;7351;51.194;4.098;2023-04-25T00:34:09;5.10;;;4.30;;
14528;SDS011;7351;51.194;4.098;2023-04-25T00:36:36;5.47;;;4.03;;
14528;SDS011;7351;51.194;4.098;2023-04-25T00:39:04;6.07;;;4.73;;
14528;SDS011;7351;51.194;4.098;2023-04-25T00:41:32;6.47;;;4.30;;
14528;SDS011;7351;51.194;4.098;2023-04-25T00:43:59;8.00;;;4.20;;
14528;SDS011;7351;51.194;4.098;2023-04-25T00:46:28;6.30;;;4.33;;
14528;SDS011;7351;51.194;4.098;2023-04-25T00:48:56;6.03;;;4.63;;
14528;SDS011;7351;51.194;4.098;2023-04-25T00:51:23;5.07;;;3.80;;
14528;SDS011;7351;51.194;4.098;2023-04-25T00:53:51;6.60;;;4.50;;
14528;SDS011;7351;51.194;4.098;2023-04-25T00:56:19;6.93;;;4.10;;
14528;SDS011;7351;51.194;4.098;2023-04-25T00:58:48;7.00;;;4.90;;
14528;SDS011;7351;51.194;4.098;2023-04-25T01:01:18;6.10;;;4.20;;
14528;SDS011;7351;51.194;4.098;2023-04-25T01:03:45;7.50;;;4.37;;
14528;SDS011;7351;51.194;4.098;2023-04-25T01:06:16;6.53;;;4.13;;
14528;SDS011;7351;51.194;4.098;2023-04-25T01:08:43;4.93;;;4.07;;
14528;SDS011;7351;51.194;4.098;2023-04-25T01:11:10;5.30;;;3.70;;
14528;SDS011;7351;51.194;4.098;2023-04-25T01:13:37;7.00;;;4.27;;
14528;SDS011;7351;51.194;4.098;2023-04-25T01:16:05;5.87;;;3.93;;
14528;SDS011;7351;51.194;4.098;2023-04-25T01:18:33;7.23;;;4.33;;
14528;SDS011;7351;51.194;4.098;2023-04-25T01:21:08;5.50;;;3.90;;
14528;SDS011;7351;51.194;4.098;2023-04-25T01:23:35;4.77;;;4.07;;
14528;SDS011;7351;51.194;4.098;2023-04-25T01:26:03;6.83;;;4.40;;
14528;SDS011;7351;51.194;4.098;2023-04-25T01:28:32;7.40;;;4.10;;
14528;SDS011;7351;51.194;4.098;2023-04-25T01:31:00;7.47;;;3.97;;
14528;SDS011;7351;51.194;4.098;2023-04-25T01:33:29;6.53;;;4.20;;
14528;SDS011;7351;51.194;4.098;2023-04-25T01:35:56;9.17;;;4.90;;
14528;SDS011;7351;51.194;4.098;2023-04-25T01:38:25;4.83;;;4.13;;
14528;SDS011;7351;51.194;4.098;2023-04-25T01:40:52;6.43;;;4.13;;
14528;SDS011;7351;51.194;4.098;2023-04-25T01:43:21;7.90;;;4.30;;
14528;SDS011;7351;51.194;4.098;2023-04-25T01:45:49;8.10;;;4.27;;
14528;SDS011;7351;51.194;4.098;2023-04-25T01:48:16;5.37;;;3.77;;
14528;SDS011;7351;51.194;4.098;2023-04-25T01:50:43;6.23;;;3.80;;
14528;SDS011;7351;51.194;4.098;2023-04-25T01:53:11;4.70;;;4.07;;
14528;SDS011;7351;51.194;4.098;2023-04-25T01:55:41;6.27;;;3.97;;
14528;SDS011;7351;51.194;4.098;2023-04-25T01:58:08;4.33;;;3.27;;
14528;SDS011;7351;51.194;4.098;2023-04-25T02:00:37;6.20;;;3.53;;
14528;SDS011;7351;51.194;4.098;2023-04-25T02:03:06;6.17;;;4.30;;
14528;SDS011;7351;51.194;4.098;2023-04-25T02:05:36;5.53;;;4.53;;
14528;SDS011;7351;51.194;4.098;2023-04-25T02:08:04;5.97;;;3.60;;
14528;SDS011;7351;51.194;4.098;2023-04-25T02:10:32;5.43;;;3.60;;
14528;SDS011;7351;51.194;4.098;2023-04-25T02:13:00;7.80;;;4.30;;
14528;SDS011;7351;51.194;4.098;2023-04-25T02:15:27;5.77;;;4.23;;
14528;SDS011;7351;51.194;4.098;2023-04-25T02:17:54;5.63;;;4.20;;
14528;SDS011;7351;51.194;4.098;2023-04-25T02:20:22;4.13;;;3.50;;
14528;SDS011;7351;51.194;4.098;2023-04-25T02:22:50;6.30;;;3.87;;
14528;SDS011;7351;51.194;4.098;2023-04-25T02:25:17;5.63;;;3.73;;
14528;SDS011;7351;51.194;4.098;2023-04-25T02:27:46;5.33;;;3.70;;
14528;SDS011;7351;51.194;4.098;2023-04-25T02:30:14;5.97;;;3.73;;
14528;SDS011;7351;51.194;4.098;2023-04-25T02:32:41;8.57;;;4.03;;
14528;SDS011;7351;51.194;4.098;2023-04-25T02:35:09;6.70;;;4.03;;
14528;SDS011;7351;51.194;4.098;2023-04-25T02:37:38;6.10;;;4.40;;
14528;SDS011;7351;51.194;4.098;2023-04-25T02:40:06;5.23;;;4.00;;
14528;SDS011;7351;51.194;4.098;2023-04-25T02:42:34;6.67;;;3.83;;
14528;SDS011;7351;51.194;4.098;2023-04-25T02:45:02;5.30;;;3.33;;
14528;SDS011;7351;51.194;4.098;2023-04-25T02:47:30;5.40;;;3.60;;
14528;SDS011;7351;51.194;4.098;2023-04-25T02:49:57;5.37;;;4.10;;
14528;SDS011;7351;51.194;4.098;2023-04-25T02:52:24;4.97;;;4.43;;
14528;SDS011;7351;51.194;4.098;2023-04-25T02:54:51;6.63;;;4.33;;
14528;SDS011;7351;51.194;4.098;2023-04-25T02:57:18;5.27;;;3.73;;
14528;SDS011;7351;51.194;4.098;2023-04-25T02:59:45;4.60;;;3.60;;
14528;SDS011;7351;51.194;4.098;2023-04-25T03:02:12;5.37;;;4.47;;
14528;SDS011;7351;51.194;4.098;2023-04-25T03:04:41;6.23;;;3.67;;
14528;SDS011;7351;51.194;4.098;2023-04-25T03:07:08;4.87;;;3.60;;
14528;SDS011;7351;51.194;4.098;2023-04-25T03:09:35;8.10;;;3.80;;
14528;SDS011;7351;51.194;4.098;2023-04-25T03:12:02;5.80;;;3.50;;
14528;SDS011;7351;51.194;4.098;2023-04-25T03:14:29;4.97;;;3.70;;
14528;SDS011;7351;51.194;4.098;2023-04-25T03:16:56;5.67;;;3.90;;
14528;SDS011;7351;51.194;4.098;2023-04-25T03:19:23;6.60;;;4.60;;
14528;SDS011;7351;51.194;4.098;2023-04-25T03:21:51;7.77;;;3.90;;
14528;SDS011;7351;51.194;4.098;2023-04-25T03:24:18;5.67;;;3.87;;
14528;SDS011;7351;51.194;4.098;2023-04-25T03:26:45;4.10;;;3.07;;
14528;SDS011;7351;51.194;4.098;2023-04-25T03:29:12;4.50;;;3.27;;
14528;SDS011;7351;51.194;4.098;2023-04-25T03:31:39;5.40;;;4.03;;
14528;SDS011;7351;51.194;4.098;2023-04-25T03:34:06;5.57;;;4.13;;
14528;SDS011;7351;51.194;4.098;2023-04-25T03:36:33;5.47;;;3.10;;
14528;SDS011;7351;51.194;4.098;2023-04-25T03:39:01;4.93;;;3.47;;
14528;SDS011;7351;51.194;4.098;2023-04-25T03:41:28;3.93;;;3.37;;
14528;SDS011;7351;51.194;4.098;2023-04-25T03:43:55;4.17;;;2.60;;
14528;SDS011;7351;51.194;4.098;2023-04-25T03:46:22;6.70;;;3.73;;
14528;SDS011;7351;51.194;4.098;2023-04-25T03:48:49;6.13;;;4.07;;
14528;SDS011;7351;51.194;4.098;2023-04-25T03:51:16;6.33;;;3.53;;
14528;SDS011;7351;51.194;4.098;2023-04-25T03:53:43;4.57;;;3.13;;
14528;SDS011;7351;51.194;4.098;2023-04-25T03:56:11;5.10;;;3.73;;
14528;SDS011;7351;51.194;4.098;2023-04-25T03:58:38;4.10;;;3.57;;
14528;SDS011;7351;51.194;4.098;2023-04-25T04:01:05;5.77;;;3.30;;
14528;SDS011;7351;51.194;4.098;2023-04-25T04:03:32;6.67;;;3.87;;
14528;SDS011;7351;51.194;4.098;2023-04-25T04:06:00;7.07;;;3.60;;
14528;SDS011;7351;51.194;4.098;2023-04-25T04:08:28;4.60;;;3.03;;
14528;SDS011;7351;51.194;4.098;2023-04-25T04:10:55;4.60;;;3.23;;
14528;SDS011;7351;51.194;4.098;2023-04-25T04:13:25;5.53;;;2.70;;
14528;SDS011;7351;51.194;4.098;2023-04-25T04:15:52;6.03;;;3.97;;
14528;SDS011;7351;51.194;4.098;2023-04-25T04:18:19;5.07;;;2.77;;
14528;SDS011;7351;51.194;4.098;2023-04-25T04:20:46;8.70;;;4.17;;
14528;SDS011;7351;51.194;4.098;2023-04-25T04:23:13;5.53;;;3.30;;
14528;SDS011;7351;51.194;4.098;2023-04-25T04:25:40;5.03;;;2.93;;
14528;SDS011;7351;51.194;4.098;2023-04-25T04:28:07;5.67;;;3.30;;
14528;SDS011;7351;51.194;4.098;2023-04-25T04:30:37;9.63;;;3.77;;
14528;SDS011;7351;51.194;4.098;2023-04-25T04:33:04;10.53;;;4.57;;
14528;SDS011;7351;51.194;4.098;2023-04-25T04:35:32;11.30;;;3.53;;
14528;SDS011;7351;51.194;4.098;2023-04-25T04:37:59;4.90;;;3.20;;
14528;SDS011;7351;51.194;4.098;2023-04-25T04:40:26;4.93;;;3.47;;
14528;SDS011;7351;51.194;4.098;2023-04-25T04:42:53;6.37;;;3.67;;
14528;SDS011;7351;51.194;4.098;2023-04-25T04:45:21;9.10;;;3.50;;
14528;SDS011;7351;51.194;4.098;2023-04-25T04:47:50;9.60;;;3.77;;
14528;SDS011;7351;51.194;4.098;2023-04-25T04:50:17;7.93;;;3.77;;
14528;SDS011;7351;51.194;4.098;2023-04-25T04:52:44;8.37;;;4.23;;
14528;SDS011;7351;51.194;4.098;2023-04-25T04:55:11;13.87;;;4.67;;
14528;SDS011;7351;51.194;4.098;2023-04-25T04:57:38;8.60;;;4.13;;
14528;SDS011;7351;51.194;4.098;2023-04-25T05:00:05;9.90;;;3.73;;
14528;SDS011;7351;51.194;4.098;2023-04-25T05:02:36;12.10;;;4.53;;
14528;SDS011;7351;51.194;4.098;2023-04-25T05:05:05;20.50;;;4.37;;
14528;SDS011;7351;51.194;4.098;2023-04-25T05:07:32;10.83;;;4.20;;
14528;SDS011;7351;51.194;4.098;2023-04-25T05:10:00;8.63;;;4.23;;
14528;SDS011;7351;51.194;4.098;2023-04-25T05:12:26;11.97;;;3.93;;
14528;SDS011;7351;51.194;4.098;2023-04-25T05:14:53;12.53;;;4.60;;
14528;SDS011;7351;51.194;4.098;2023-04-25T05:17:20;10.97;;;4.60;;
14528;SDS011;7351;51.194;4.098;2023-04-25T05:19:47;15.80;;;4.40;;
14528;SDS011;7351;51.194;4.098;2023-04-25T05:22:16;15.17;;;4.63;;
14528;SDS011;7351;51.194;4.098;2023-04-25T05:24:43;17.77;;;4.53;;
14528;SDS011;7351;51.194;4.098;2023-04-25T05:27:10;16.97;;;5.03;;
14528;SDS011;7351;51.194;4.098;2023-04-25T05:29:37;8.23;;;3.90;;
14528;SDS011;7351;51.194;4.098;2023-04-25T05:32:04;7.03;;;3.80;;
14528;SDS011;7351;51.194;4.098;2023-04-25T05:34:32;10.57;;;3.93;;
14528;SDS011;7351;51.194;4.098;2023-04-25T05:36:59;10.50;;;3.70;;
14528;SDS011;7351;51.194;4.098;2023-04-25T05:39:28;10.97;;;3.93;;
14528;SDS011;7351;51.194;4.098;2023-04-25T05:41:55;11.20;;;4.40;;
14528;SDS011;7351;51.194;4.098;2023-04-25T05:44:22;14.67;;;5.17;;
14528;SDS011;7351;51.194;4.098;2023-04-25T05:46:49;15.10;;;4.93;;
14528;SDS011;7351;51.194;4.098;2023-04-25T05:49:16;10.73;;;4.77;;
14528;SDS011;7351;51.194;4.098;2023-04-25T05:51:42;6.40;;;3.70;;
14528;SDS011;7351;51.194;4.098;2023-04-25T05:54:09;8.23;;;3.50;;
14528;SDS011;7351;51.194;4.098;2023-04-25T05:56:38;6.93;;;4.43;;
14528;SDS011;7351;51.194;4.098;2023-04-25T05:59:05;12.93;;;4.87;;
14528;SDS011;7351;51.194;4.098;2023-04-25T06:01:32;7.17;;;4.43;;
14528;SDS011;7351;51.194;4.098;2023-04-25T06:03:59;12.03;;;3.97;;
14528;SDS011;7351;51.194;4.098;2023-04-25T06:06:26;5.47;;;3.40;;
14528;SDS011;7351;51.194;4.098;2023-04-25T06:08:53;8.03;;;3.80;;
14528;SDS011;7351;51.194;4.098;2023-04-25T06:11:20;9.70;;;4.90;;
14528;SDS011;7351;51.194;4.098;2023-04-25T06:13:48;9.00;;;3.93;;
14528;SDS011;7351;51.194;4.098;2023-04-25T06:16:15;12.07;;;4.50;;
14528;SDS011;7351;51.194;4.098;2023-04-25T06:18:42;10.47;;;3.90;;
14528;SDS011;7351;51.194;4.098;2023-04-25T06:21:09;9.10;;;4.30;;
14528;SDS011;7351;51.194;4.098;2023-04-25T06:23:36;10.67;;;4.23;;
14528;SDS011;7351;51.194;4.098;2023-04-25T06:26:03;7.83;;;3.27;;
14528;SDS011;7351;51.194;4.098;2023-04-25T06:28:30;6.80;;;3.57;;
14528;SDS011;7351;51.194;4.098;2023-04-25T06:30:58;12.03;;;3.20;;
14528;SDS011;7351;51.194;4.098;2023-04-25T06:33:25;5.50;;;3.23;;
14528;SDS011;7351;51.194;4.098;2023-04-25T06:35:52;6.73;;;3.43;;
14528;SDS011;7351;51.194;4.098;2023-04-25T06:38:19;9.03;;;4.47;;
14528;SDS011;7351;51.194;4.098;2023-04-25T06:40:46;8.27;;;4.70;;
14528;SDS011;7351;51.194;4.098;2023-04-25T06:43:13;7.57;;;4.37;;
14528;SDS011;7351;51.194;4.098;2023-04-25T06:45:40;7.37;;;3.67;;
14528;SDS011;7351;51.194;4.098;2023-04-25T06:48:08;6.97;;;3.90;;
14528;SDS011;7351;51.194;4.098;2023-04-25T06:50:35;9.07;;;3.77;;
14528;SDS011;7351;51.194;4.098;2023-04-25T06:53:02;6.33;;;3.53;;
14528;SDS011;7351;51.194;4.098;2023-04-25T06:55:29;8.43;;;3.80;;
14528;SDS011;7351;51.194;4.098;2023-04-25T06:57:56;6.23;;;4.03;;
14528;SDS011;7351;51.194;4.098;2023-04-25T07:00:23;7.03;;;4.23;;
14528;SDS011;7351;51.194;4.098;2023-04-25T07:02:51;5.13;;;3.70;;
14528;SDS011;7351;51.194;4.098;2023-04-25T07:05:19;3.57;;;2.90;;
14528;SDS011;7351;51.194;4.098;2023-04-25T07:07:47;3.77;;;3.33;;
14528;SDS011;7351;51.194;4.098;2023-04-25T07:10:13;7.37;;;2.70;;
14528;SDS011;7351;51.194;4.098;2023-04-25T07:12:40;4.67;;;3.37;;
14528;SDS011;7351;51.194;4.098;2023-04-25T07:15:08;5.13;;;3.10;;
14528;SDS011;7351;51.194;4.098;2023-04-25T07:17:36;7.67;;;3.87;;
14528;SDS011;7351;51.194;4.098;2023-04-25T07:20:03;6.03;;;3.40;;
14528;SDS011;7351;51.194;4.098;2023-04-25T07:22:35;5.97;;;3.43;;
14528;SDS011;7351;51.194;4.098;2023-04-25T07:25:02;4.47;;;3.10;;
14528;SDS011;7351;51.194;4.098;2023-04-25T07:27:30;5.03;;;2.73;;
14528;SDS011;7351;51.194;4.098;2023-04-25T07:29:58;5.90;;;3.20;;
14528;SDS011;7351;51.194;4.098;2023-04-25T07:32:25;6.63;;;3.47;;
14528;SDS011;7351;51.194;4.098;2023-04-25T07:34:52;4.57;;;3.20;;
14528;SDS011;7351;51.194;4.098;2023-04-25T07:37:19;4.77;;;2.80;;
14528;SDS011;7351;51.194;4.098;2023-04-25T07:39:47;6.20;;;2.53;;
14528;SDS011;7351;51.194;4.098;2023-04-25T07:42:14;7.00;;;3.37;;
14528;SDS011;7351;51.194;4.098;2023-04-25T07:44:41;6.80;;;3.57;;
14528;SDS011;7351;51.194;4.098;2023-04-25T07:47:08;4.40;;;3.60;;
14528;SDS011;7351;51.194;4.098;2023-04-25T07:49:36;4.93;;;3.83;;
14528;SDS011;7351;51.194;4.098;2023-04-25T07:52:04;4.70;;;3.00;;
14528;SDS011;7351;51.194;4.098;2023-04-25T07:54:31;4.37;;;2.97;;
14528;SDS011;7351;51.194;4.098;2023-04-25T07:57:00;6.27;;;3.37;;
14528;SDS011;7351;51.194;4.098;2023-04-25T07:59:27;3.70;;;2.73;;
14528;SDS011;7351;51.194;4.098;2023-04-25T08:01:54;3.20;;;2.90;;
14528;SDS011;7351;51.194;4.098;2023-04-25T08:04:22;4.10;;;2.67;;
14528;SDS011;7351;51.194;4.098;2023-04-25T08:06:50;5.87;;;3.47;;
14528;SDS011;7351;51.194;4.098;2023-04-25T08:09:17;3.87;;;2.60;;
14528;SDS011;7351;51.194;4.098;2023-04-25T08:11:44;3.93;;;3.27;;
14528;SDS011;7351;51.194;4.098;2023-04-25T08:14:13;4.30;;;2.93;;
14528;SDS011;7351;51.194;4.098;2023-04-25T08:16:40;4.57;;;2.77;;
14528;SDS011;7351;51.194;4.098;2023-04-25T08:19:07;3.17;;;2.53;;
14528;SDS011;7351;51.194;4.098;2023-04-25T08:21:34;3.30;;;2.97;;
14528;SDS011;7351;51.194;4.098;2023-04-25T08:24:01;3.03;;;2.20;;
14528;SDS011;7351;51.194;4.098;2023-04-25T08:26:28;6.43;;;3.43;;
14528;SDS011;7351;51.194;4.098;2023-04-25T08:28:55;5.07;;;2.70;;
14528;SDS011;7351;51.194;4.098;2023-04-25T08:31:23;7.90;;;3.00;;
14528;SDS011;7351;51.194;4.098;2023-04-25T08:33:50;4.80;;;2.70;;
14528;SDS011;7351;51.194;4.098;2023-04-25T08:36:18;5.60;;;2.90;;
14528;SDS011;7351;51.194;4.098;2023-04-25T08:38:45;4.70;;;2.50;;
14528;SDS011;7351;51.194;4.098;2023-04-25T08:41:11;4.27;;;2.37;;
14528;SDS011;7351;51.194;4.098;2023-04-25T08:43:41;4.90;;;3.17;;
14528;SDS011;7351;51.194;4.098;2023-04-25T08:46:09;3.47;;;2.00;;
14528;SDS011;7351;51.194;4.098;2023-04-25T08:48:39;5.60;;;2.73;;
14528;SDS011;7351;51.194;4.098;2023-04-25T08:51:08;5.10;;;3.10;;
14528;SDS011;7351;51.194;4.098;2023-04-25T08:53:41;4.30;;;3.37;;
14528;SDS011;7351;51.194;4.098;2023-04-25T08:56:08;4.57;;;3.03;;
14528;SDS011;7351;51.194;4.098;2023-04-25T08:58:38;5.67;;;2.60;;
14528;SDS011;7351;51.194;4.098;2023-04-25T09:01:06;3.07;;;2.17;;
14528;SDS011;7351;51.194;4.098;2023-04-25T09:03:33;3.77;;;2.67;;
14528;SDS011;7351;51.194;4.098;2023-04-25T09:06:02;3.10;;;2.43;;
14528;SDS011;7351;51.194;4.098;2023-04-25T09:08:30;3.23;;;2.40;;
14528;SDS011;7351;51.194;4.098;2023-04-25T09:10:57;4.27;;;2.70;;
14528;SDS011;7351;51.194;4.098;2023-04-25T09:13:24;5.53;;;2.37;;
14528;SDS011;7351;51.194;4.098;2023-04-25T09:15:53;4.00;;;2.33;;
14528;SDS011;7351;51.194;4.098;2023-04-25T09:18:22;3.40;;;2.30;;
14528;SDS011;7351;51.194;4.098;2023-04-25T09:20:51;4.67;;;2.30;;
14528;SDS011;7351;51.194;4.098;2023-04-25T09:23:20;3.60;;;2.43;;
14528;SDS011;7351;51.194;4.098;2023-04-25T09:25:48;3.47;;;2.10;;
14528;SDS011;7351;51.194;4.098;2023-04-25T09:28:17;6.57;;;2.97;;
14528;SDS011;7351;51.194;4.098;2023-04-25T09:30:53;4.50;;;2.50;;
14528;SDS011;7351;51.194;4.098;2023-04-25T09:33:26;4.37;;;2.20;;
14528;SDS011;7351;51.194;4.098;2023-04-25T09:35:55;4.80;;;2.53;;
14528;SDS011;7351;51.194;4.098;2023-04-25T09:38:31;2.67;;;2.40;;
14528;SDS011;7351;51.194;4.098;2023-04-25T09:40:58;3.57;;;2.23;;
14528;SDS011;7351;51.194;4.098;2023-04-25T09:43:28;2.30;;;2.10;;
14528;SDS011;7351;51.194;4.098;2023-04-25T09:45:55;4.40;;;2.33;;
14528;SDS011;7351;51.194;4.098;2023-04-25T09:48:26;2.87;;;2.20;;
14528;SDS011;7351;51.194;4.098;2023-04-25T09:51:03;6.83;;;2.70;;
14528;SDS011;7351;51.194;4.098;2023-04-25T09:53:33;4.43;;;2.10;;
14528;SDS011;7351;51.194;4.098;2023-04-25T09:56:00;5.07;;;2.37;;
14528;SDS011;7351;51.194;4.098;2023-04-25T09:58:31;2.27;;;1.77;;
14528;SDS011;7351;51.194;4.098;2023-04-25T10:01:01;3.50;;;2.10;;
14528;SDS011;7351;51.194;4.098;2023-04-25T10:03:30;3.97;;;2.60;;
14528;SDS011;7351;51.194;4.098;2023-04-25T10:05:59;5.37;;;2.97;;
14528;SDS011;7351;51.194;4.098;2023-04-25T10:08:29;3.10;;;2.27;;
14528;SDS011;7351;51.194;4.098;2023-04-25T10:11:00;4.13;;;2.20;;
14528;SDS011;7351;51.194;4.098;2023-04-25T10:13:28;3.53;;;2.37;;
14528;SDS011;7351;51.194;4.098;2023-04-25T10:15:57;5.10;;;2.53;;
14528;SDS011;7351;51.194;4.098;2023-04-25T10:18:24;3.57;;;2.37;;
14528;SDS011;7351;51.194;4.098;2023-04-25T10:20:52;3.80;;;2.60;;
14528;SDS011;7351;51.194;4.098;2023-04-25T10:23:20;3.50;;;2.13;;
14528;SDS011;7351;51.194;4.098;2023-04-25T10:25:47;5.67;;;1.60;;
14528;SDS011;7351;51.194;4.098;2023-04-25T10:28:17;3.47;;;1.90;;
14528;SDS011;7351;51.194;4.098;2023-04-25T10:30:57;3.27;;;2.50;;
14528;SDS011;7351;51.194;4.098;2023-04-25T10:33:34;4.70;;;2.43;;
14528;SDS011;7351;51.194;4.098;2023-04-25T10:36:09;3.00;;;2.23;;
14528;SDS011;7351;51.194;4.098;2023-04-25T10:38:37;6.80;;;2.60;;
14528;SDS011;7351;51.194;4.098;2023-04-25T10:41:05;2.97;;;2.00;;
14528;SDS011;7351;51.194;4.098;2023-04-25T10:43:36;4.47;;;3.10;;
14528;SDS011;7351;51.194;4.098;2023-04-25T10:46:12;6.00;;;2.27;;
14528;SDS011;7351;51.194;4.098;2023-04-25T10:48:44;3.40;;;2.10;;
14528;SDS011;7351;51.194;4.098;2023-04-25T10:51:21;3.43;;;2.57;;
14528;SDS011;7351;51.194;4.098;2023-04-25T10:53:59;4.73;;;2.37;;
14528;SDS011;7351;51.194;4.098;2023-04-25T10:56:27;4.03;;;2.20;;
14528;SDS011;7351;51.194;4.098;2023-04-25T10:59:06;3.40;;;2.57;;
14528;SDS011;7351;51.194;4.098;2023-04-25T11:01:36;3.17;;;2.27;;
14528;SDS011;7351;51.194;4.098;2023-04-25T11:04:19;2.50;;;1.30;;
14528;SDS011;7351;51.194;4.098;2023-04-25T11:06:51;3.07;;;1.93;;
14528;SDS011;7351;51.194;4.098;2023-04-25T11:09:32;3.37;;;2.23;;
14528;SDS011;7351;51.194;4.098;2023-04-25T11:11:59;3.40;;;1.90;;
14528;SDS011;7351;51.194;4.098;2023-04-25T11:14:30;3.03;;;1.67;;
14528;SDS011;7351;51.194;4.098;2023-04-25T11:16:58;2.37;;;2.17;;
14528;SDS011;7351;51.194;4.098;2023-04-25T11:19:27;3.77;;;2.30;;
14528;SDS011;7351;51.194;4.098;2023-04-25T11:21:54;2.60;;;2.13;;
14528;SDS011;7351;51.194;4.098;2023-04-25T11:24:25;2.17;;;1.43;;
14528;SDS011;7351;51.194;4.098;2023-04-25T11:26:53;2.57;;;1.83;;
14528;SDS011;7351;51.194;4.098;2023-04-25T11:29:21;4.93;;;1.40;;
14528;SDS011;7351;51.194;4.098;2023-04-25T11:31:50;3.37;;;2.10;;
14528;SDS011;7351;51.194;4.098;2023-04-25T11:34:17;2.33;;;1.37;;
14528;SDS011;7351;51.194;4.098;2023-04-25T11:36:45;5.10;;;2.13;;
14528;SDS011;7351;51.194;4.098;2023-04-25T11:39:12;1.50;;;1.40;;
14528;SDS011;7351;51.194;4.098;2023-04-25T11:41:40;2.33;;;1.33;;
14528;SDS011;7351;51.194;4.098;2023-04-25T11:44:08;2.00;;;1.63;;
14528;SDS011;7351;51.194;4.098;2023-04-25T11:46:35;3.73;;;1.60;;
14528;SDS011;7351;51.194;4.098;2023-04-25T11:49:03;2.13;;;1.63;;
14528;SDS011;7351;51.194;4.098;2023-04-25T11:51:32;4.57;;;1.97;;
14528;SDS011;7351;51.194;4.098;2023-04-25T11:54:04;1.47;;;1.30;;
14528;SDS011;7351;51.194;4.098;2023-04-25T11:56:32;2.47;;;1.57;;
14528;SDS011;7351;51.194;4.098;2023-04-25T11:58:59;2.40;;;1.83;;
14528;SDS011;7351;51.194;4.098;2023-04-25T12:01:28;3.97;;;1.47;;
14528;SDS011;7351;51.194;4.098;2023-04-25T12:03:56;5.63;;;1.87;;
14528;SDS011;7351;51.194;4.098;2023-04-25T12:06:27;4.13;;;1.70;;
14528;SDS011;7351;51.194;4.098;2023-04-25T12:09:01;4.37;;;2.17;;
14528;SDS011;7351;51.194;4.098;2023-04-25T12:11:29;5.47;;;1.87;;
14528;SDS011;7351;51.194;4.098;2023-04-25T12:14:01;2.87;;;2.27;;
14528;SDS011;7351;51.194;4.098;2023-04-25T12:16:29;9.63;;;2.17;;
14528;SDS011;7351;51.194;4.098;2023-04-25T12:18:56;7.53;;;2.50;;
14528;SDS011;7351;51.194;4.098;2023-04-25T12:21:29;8.27;;;2.80;;
14528;SDS011;7351;51.194;4.098;2023-04-25T12:24:07;4.00;;;2.57;;
14528;SDS011;7351;51.194;4.098;2023-04-25T12:26:49;15.43;;;2.47;;
14528;SDS011;7351;51.194;4.098;2023-04-25T12:29:20;11.63;;;3.57;;
14528;SDS011;7351;51.194;4.098;2023-04-25T12:31:48;13.37;;;3.30;;
14528;SDS011;7351;51.194;4.098;2023-04-25T12:34:16;14.33;;;2.87;;
14528;SDS011;7351;51.194;4.098;2023-04-25T12:36:44;18.13;;;3.20;;
14528;SDS011;7351;51.194;4.098;2023-04-25T12:39:15;14.20;;;2.53;;
14528;SDS011;7351;51.194;4.098;2023-04-25T12:41:42;9.93;;;3.40;;
14528;SDS011;7351;51.194;4.098;2023-04-25T12:44:10;9.70;;;3.73;;
14528;SDS011;7351;51.194;4.098;2023-04-25T12:46:37;9.70;;;2.80;;
14528;SDS011;7351;51.194;4.098;2023-04-25T12:49:04;11.97;;;3.37;;
14528;SDS011;7351;51.194;4.098;2023-04-25T12:51:32;10.00;;;2.97;;
14528;SDS011;7351;51.194;4.098;2023-04-25T12:54:01;8.57;;;2.87;;
14528;SDS011;7351;51.194;4.098;2023-04-25T12:56:29;7.17;;;2.57;;
14528;SDS011;7351;51.194;4.098;2023-04-25T12:58:56;11.70;;;3.00;;
14528;SDS011;7351;51.194;4.098;2023-04-25T13:01:24;10.43;;;3.57;;
14528;SDS011;7351;51.194;4.098;2023-04-25T13:03:51;8.00;;;2.47;;
14528;SDS011;7351;51.194;4.098;2023-04-25T13:06:19;9.07;;;2.40;;
14528;SDS011;7351;51.194;4.098;2023-04-25T13:08:46;12.13;;;3.13;;
14528;SDS011;7351;51.194;4.098;2023-04-25T13:11:15;9.37;;;2.50;;
14528;SDS011;7351;51.194;4.098;2023-04-25T13:13:42;13.73;;;3.93;;
14528;SDS011;7351;51.194;4.098;2023-04-25T13:16:10;8.00;;;3.20;;
14528;SDS011;7351;51.194;4.098;2023-04-25T13:18:39;10.27;;;2.80;;
14528;SDS011;7351;51.194;4.098;2023-04-25T13:21:06;7.93;;;2.60;;
14528;SDS011;7351;51.194;4.098;2023-04-25T13:23:33;9.90;;;2.30;;
14528;SDS011;7351;51.194;4.098;2023-04-25T13:26:00;11.43;;;3.90;;
14528;SDS011;7351;51.194;4.098;2023-04-25T13:28:28;12.43;;;2.97;;
14528;SDS011;7351;51.194;4.098;2023-04-25T13:30:55;11.57;;;3.17;;
14528;SDS011;7351;51.194;4.098;2023-04-25T13:33:23;7.53;;;2.80;;
14528;SDS011;7351;51.194;4.098;2023-04-25T13:35:50;8.20;;;3.60;;
14528;SDS011;7351;51.194;4.098;2023-04-25T13:38:21;6.60;;;2.50;;
14528;SDS011;7351;51.194;4.098;2023-04-25T13:40:48;10.13;;;3.10;;
14528;SDS011;7351;51.194;4.098;2023-04-25T13:43:17;10.80;;;2.80;;
14528;SDS011;7351;51.194;4.098;2023-04-25T13:45:46;16.67;;;3.47;;
14528;SDS011;7351;51.194;4.098;2023-04-25T13:48:13;9.97;;;3.27;;
14528;SDS011;7351;51.194;4.098;2023-04-25T13:50:40;8.53;;;3.50;;
14528;SDS011;7351;51.194;4.098;2023-04-25T13:53:07;12.77;;;3.00;;
14528;SDS011;7351;51.194;4.098;2023-04-25T13:55:34;8.93;;;3.93;;
14528;SDS011;7351;51.194;4.098;2023-04-25T13:58:01;14.17;;;4.73;;
14528;SDS011;7351;51.194;4.098;2023-04-25T14:00:32;16.20;;;5.63;;
14528;SDS011;7351;51.194;4.098;2023-04-25T14:03:02;12.03;;;3.70;;
14528;SDS011;7351;51.194;4.098;2023-04-25T14:05:32;17.70;;;4.77;;
14528;SDS011;7351;51.194;4.098;2023-04-25T14:08:03;14.20;;;3.80;;
14528;SDS011;7351;51.194;4.098;2023-04-25T14:10:30;12.73;;;4.83;;
14528;SDS011;7351;51.194;4.098;2023-04-25T14:12:57;10.50;;;4.80;;
14528;SDS011;7351;51.194;4.098;2023-04-25T14:15:25;23.43;;;4.57;;
14528;SDS011;7351;51.194;4.098;2023-04-25T14:17:52;12.00;;;5.20;;
14528;SDS011;7351;51.194;4.098;2023-04-25T14:20:20;14.00;;;5.00;;
14528;SDS011;7351;51.194;4.098;2023-04-25T14:22:48;9.67;;;4.97;;
14528;SDS011;7351;51.194;4.098;2023-04-25T14:25:17;15.50;;;5.50;;
14528;SDS011;7351;51.194;4.098;2023-04-25T14:27:44;11.50;;;4.67;;
14528;SDS011;7351;51.194;4.098;2023-04-25T14:30:14;10.83;;;4.20;;
14528;SDS011;7351;51.194;4.098;2023-04-25T14:32:42;16.03;;;4.83;;
14528;SDS011;7351;51.194;4.098;2023-04-25T14:35:09;10.93;;;4.30;;
14528;SDS011;7351;51.194;4.098;2023-04-25T14:37:37;12.30;;;4.30;;
14528;SDS011;7351;51.194;4.098;2023-04-25T14:40:04;13.93;;;4.33;;
14528;SDS011;7351;51.194;4.098;2023-04-25T14:42:33;17.30;;;4.70;;
14528;SDS011;7351;51.194;4.098;2023-04-25T14:45:01;13.93;;;4.53;;
14528;SDS011;7351;51.194;4.098;2023-04-25T14:47:28;10.70;;;4.70;;
14528;SDS011;7351;51.194;4.098;2023-04-25T14:49:55;11.60;;;4.60;;
14528;SDS011;7351;51.194;4.098;2023-04-25T14:52:22;11.43;;;4.20;;
14528;SDS011;7351;51.194;4.098;2023-04-25T14:54:51;14.67;;;4.33;;
14528;SDS011;7351;51.194;4.098;2023-04-25T14:57:18;15.93;;;4.83;;
14528;SDS011;7351;51.194;4.098;2023-04-25T14:59:45;13.80;;;4.60;;
14528;SDS011;7351;51.194;4.098;2023-04-25T15:02:12;8.97;;;4.27;;
14528;SDS011;7351;51.194;4.098;2023-04-25T15:04:39;13.20;;;4.57;;